330  
SXUS55 KMSO 210013  
OSOMSO  
MONTANA AWOS SUMMARY  
NATIONAL WEATHER SERVICE MISSOULA MT  
613 PM MDT MON NOV 20 2017  
 
MONTANA AWOS REPORTS  
 
ROUNDUP |KRPX 210002Z AUTO 01007KT 10SM 02/M03 A2972 RMK AO1 T00221027  
ROUNDUP |KRPX 210005Z AUTO 01007KT 10SM 02/M03 A2972 RMK AO1 T00221027  
 
CLICK HERE TO GO TO PREVIOUS BULLETINS.

The Nexlab MT Page
The Nexlab ID Page Main Text Page